METAR Data
IDs: Format: Raw Decoded Include TAF

Data at: 1618 UTC 18 Feb 2019

METAR for:KMUT (Muscatine Muni, IA, US)
Text:KMUT 181615Z AUTO 34008KT 10SM CLR M06/M09 A3042 RMK AO2
Temperature: -6.0°C ( 21°F)
Dewpoint: -9.0°C ( 16°F) [RH = 79%]
Pressure (altimeter):30.42 inches Hg (1030.2 mb)
Winds:from the NNW (340 degrees) at 9 MPH (8 knots; 4.1 m/s)
Visibility:10 or more sm (16+ km)
Ceiling:at least 12,000 feet AGL
Clouds:sky clear below 12,000 feet AGL
QC Flag:automated observation with no human augmentation